createdAt,value
2022-07-26T00:01:22.939Z,31.1
2022-07-26T00:03:37.751Z,30.9
2022-07-26T00:05:52.524Z,30.4
2022-07-26T00:08:07.638Z,30.6
2022-07-26T00:10:22.290Z,30.6
2022-07-26T00:12:37.162Z,30.6
2022-07-26T00:14:52.030Z,30.6
2022-07-26T00:17:06.785Z,30.7
2022-07-26T00:19:21.635Z,30.6
2022-07-26T00:21:36.501Z,30.8
2022-07-26T00:23:51.399Z,30.8
2022-07-26T00:26:06.200Z,30.8
2022-07-26T00:28:20.985Z,30.6
2022-07-26T00:30:35.878Z,30.8
2022-07-26T00:32:50.707Z,30.7
2022-07-26T00:35:05.700Z,30.9
2022-07-26T00:37:20.958Z,30.8
2022-07-26T00:39:35.371Z,30.8
2022-07-26T00:41:50.150Z,30.5
2022-07-26T00:44:05.196Z,30.6
2022-07-26T00:46:19.797Z,30.5
2022-07-26T00:48:34.741Z,30.7
2022-07-26T00:50:49.647Z,30.7
2022-07-26T00:53:04.420Z,30.8
2022-07-26T00:55:19.866Z,30.7
2022-07-26T00:57:34.098Z,30.8
2022-07-26T00:59:49.151Z,30.6
2022-07-26T01:02:04.106Z,30.8
2022-07-26T01:04:18.628Z,30.5
2022-07-26T01:06:33.394Z,30.6
2022-07-26T01:08:48.397Z,30.4
2022-07-26T01:11:03.171Z,30.6
2022-07-26T01:13:18.136Z,30.6
2022-07-26T01:15:32.837Z,30.8
2022-07-26T01:17:47.797Z,30.6
2022-07-26T01:20:02.661Z,30.6
2022-07-26T01:22:17.491Z,30.6
2022-07-26T01:24:32.210Z,30.7
2022-07-26T01:26:47.110Z,30.6
2022-07-26T01:29:01.996Z,30.6
2022-07-26T01:31:17.137Z,30.6
2022-07-26T01:33:31.714Z,30.6
2022-07-26T01:35:46.493Z,30.5
2022-07-26T01:38:01.295Z,30.4
2022-07-26T01:40:16.196Z,30.6
2022-07-26T01:42:31.050Z,30.7
2022-07-26T01:44:45.946Z,30.5
2022-07-26T01:47:00.764Z,31.1
2022-07-26T01:49:15.710Z,30.1
2022-07-26T01:51:30.478Z,30.6
2022-07-26T01:53:45.389Z,30.6
2022-07-26T01:56:00.137Z,30.5
2022-07-26T01:58:15.069Z,30.6
2022-07-26T02:00:29.890Z,30.5
2022-07-26T02:02:44.919Z,30.6
2022-07-26T02:04:59.636Z,30.6
2022-07-26T02:07:14.468Z,30.6
2022-07-26T02:09:32.068Z,30.5
2022-07-26T02:11:44.313Z,30.8
2022-07-26T03:36:04.763Z,30.5
2022-07-26T03:38:19.625Z,30.6
2022-07-26T03:40:34.530Z,29.6
2022-07-26T03:42:49.350Z,30.5
2022-07-26T03:45:04.149Z,30.6
2022-07-26T03:47:19.019Z,30.5
2022-07-26T03:49:33.911Z,30.3
2022-07-26T03:51:48.775Z,30.4
2022-07-26T03:54:03.472Z,30.2
2022-07-26T03:56:18.406Z,29.9
2022-07-26T03:58:33.273Z,30.3
2022-07-26T04:00:48.270Z,30.4
2022-07-26T04:03:03.909Z,30.5
2022-07-26T04:05:17.813Z,30.4
2022-07-26T04:07:32.640Z,30.4
2022-07-26T04:09:54.071Z,30.4
2022-07-26T04:12:09.021Z,30.4
2022-07-26T04:14:23.632Z,30.6
2022-07-26T04:16:43.008Z,30.3
2022-07-26T04:18:53.459Z,30.4
2022-07-26T04:21:08.320Z,30.5
2022-07-26T04:23:23.091Z,30.3
2022-07-26T04:25:38.522Z,30.5
2022-07-26T04:27:52.804Z,30.5
2022-07-26T04:30:14.965Z,30.3
2022-07-26T04:32:28.307Z,30.3
2022-07-26T04:34:42.973Z,30.4
2022-07-26T04:36:58.013Z,30.3
2022-07-26T04:39:12.761Z,30.4
2022-07-26T04:41:27.604Z,30.4
2022-07-26T04:43:42.364Z,30.1
2022-07-26T04:45:57.249Z,30.4
2022-07-26T04:48:12.119Z,30.5
2022-07-26T04:50:26.999Z,30.4
2022-07-26T04:52:41.795Z,30.4
2022-07-26T04:54:56.593Z,30.3
2022-07-26T04:57:11.586Z,30.3
2022-07-26T04:59:26.286Z,30.3
2022-07-26T05:01:57.510Z,30.3
2022-07-26T05:04:12.362Z,30.4
2022-07-26T05:06:27.171Z,30.4
2022-07-26T05:08:41.969Z,30.4
2022-07-26T05:11:03.195Z,30.3
2022-07-26T05:13:18.499Z,30.4
2022-07-26T05:15:35.215Z,30.4
2022-07-26T05:18:06.897Z,30.4
2022-07-26T05:20:26.405Z,30.4
2022-07-26T05:22:41.227Z,30.4
2022-07-26T05:25:14.666Z,30.4
2022-07-26T05:27:30.085Z,30.5
2022-07-26T05:29:44.464Z,30.4
2022-07-26T05:31:59.327Z,30.3
2022-07-26T05:34:14.160Z,30.3
2022-07-26T05:36:28.962Z,30.4
2022-07-26T05:38:44.158Z,30.4
2022-07-26T05:40:58.603Z,30.4
2022-07-26T05:43:13.506Z,30.3
2022-07-26T05:45:28.672Z,30.4
2022-07-26T05:47:43.386Z,30.4
2022-07-26T05:49:58.328Z,30.3
2022-07-26T05:52:13.214Z,30.4
2022-07-26T05:54:28.025Z,30.3
2022-07-26T05:56:42.786Z,30.3
2022-07-26T05:58:57.737Z,30.4
2022-07-26T06:01:12.601Z,30.5
2022-07-26T06:03:27.383Z,30.4
2022-07-26T06:05:42.207Z,30.5
2022-07-26T06:07:56.985Z,30.4
2022-07-26T06:10:11.955Z,30.4
2022-07-26T06:12:26.321Z,30.4
2022-07-26T06:14:41.667Z,30.4
2022-07-26T06:16:56.500Z,30.3
2022-07-26T06:19:11.308Z,30.3
2022-07-26T06:21:26.142Z,30.4
2022-07-26T06:23:45.539Z,30.3
2022-07-26T06:26:00.347Z,30.1
2022-07-26T06:28:15.739Z,30.4
2022-07-26T06:30:34.448Z,30.4
2022-07-26T06:32:49.391Z,30.4
2022-07-26T06:35:04.413Z,30.4
2022-07-26T06:37:19.114Z,30.3
2022-07-26T06:39:33.335Z,30.4
2022-07-26T06:41:48.712Z,30.4
2022-07-26T06:44:03.619Z,30.3
2022-07-26T06:46:18.588Z,30.4
2022-07-26T06:48:33.410Z,30.3
2022-07-26T06:50:48.159Z,30.2
2022-07-26T06:53:02.444Z,30.5
2022-07-26T06:55:17.891Z,30.3
2022-07-26T06:57:32.714Z,30.4
2022-07-26T06:59:47.488Z,30.4
2022-07-26T07:02:31.073Z,30.4
2022-07-26T07:04:45.889Z,30.4
2022-07-26T07:07:00.833Z,30.4
2022-07-26T07:09:15.653Z,30.4
2022-07-26T07:11:30.436Z,30.4
2022-07-26T07:13:45.263Z,30.4
2022-07-26T07:16:00.122Z,30.3
2022-07-26T07:18:15.001Z,30.4
2022-07-26T07:20:29.856Z,30.4
2022-07-26T07:22:44.778Z,30.3
2022-07-26T07:24:59.514Z,30.4
2022-07-26T07:27:14.417Z,30.3
2022-07-26T07:29:29.359Z,30.3
2022-07-26T07:31:47.900Z,30.4
2022-07-26T07:33:58.366Z,30.5
2022-07-26T07:36:13.873Z,30.4
2022-07-26T07:38:42.782Z,30.5
2022-07-26T07:40:55.688Z,30.4
2022-07-26T07:43:10.648Z,30.5
2022-07-26T07:45:25.431Z,30.4
2022-07-26T07:47:40.260Z,30.4
2022-07-26T07:49:55.124Z,30.3
2022-07-26T07:52:10.352Z,30.4
2022-07-26T07:54:25.000Z,30.4
2022-07-26T07:56:58.455Z,30.4
2022-07-26T07:59:13.481Z,30.5
2022-07-26T08:01:39.945Z,30.4
2022-07-26T08:03:42.979Z,30.4
2022-07-26T08:05:58.405Z,30.5
2022-07-26T08:08:13.234Z,30.4
2022-07-26T08:10:28.013Z,30.4
2022-07-26T08:12:43.119Z,30.4
2022-07-26T08:14:57.696Z,30.5
2022-07-26T08:17:12.570Z,30.4
2022-07-26T08:19:29.301Z,30.4
2022-07-26T08:21:44.085Z,30.5
2022-07-26T08:23:58.833Z,30.4
2022-07-26T08:26:13.610Z,30.4
2022-07-26T08:28:48.298Z,30.4
2022-07-26T08:30:55.260Z,30.4
2022-07-26T08:33:10.306Z,30.5
2022-07-26T08:35:35.523Z,30.4
2022-07-26T08:38:03.280Z,30.4
2022-07-26T08:40:18.111Z,30.3
2022-07-26T08:42:33.014Z,30.5
2022-07-26T08:44:53.162Z,30.4
2022-07-26T08:47:07.937Z,30.4
2022-07-26T08:49:39.587Z,30.6
2022-07-26T08:51:54.500Z,30.4
2022-07-26T08:54:09.311Z,30.4
2022-07-26T08:56:38.562Z,30.5
2022-07-26T08:58:53.481Z,30.6
2022-07-26T09:01:08.296Z,30.4
2022-07-26T09:03:22.919Z,30.6
2022-07-26T09:05:37.782Z,30.5
2022-07-26T09:07:52.557Z,30.5
2022-07-26T09:10:07.480Z,30.5
2022-07-26T09:12:22.340Z,30.7
2022-07-26T09:14:37.094Z,30.5
2022-07-26T09:16:52.064Z,30.7
2022-07-26T09:19:07.108Z,30.6
2022-07-26T09:21:21.845Z,30.6
2022-07-26T09:23:36.650Z,30.6
2022-07-26T09:25:51.437Z,30.8
2022-07-26T09:28:06.453Z,30.6
2022-07-26T09:30:21.233Z,30.6
2022-07-26T09:32:35.995Z,30.6
2022-07-26T09:34:53.293Z,30.7
2022-07-26T09:37:23.647Z,30.6
2022-07-26T09:39:38.589Z,30.5
2022-07-26T09:42:11.075Z,30.7
2022-07-26T09:44:27.102Z,30.6
2022-07-26T09:46:42.090Z,30.6
2022-07-26T09:49:14.556Z,30.5
2022-07-26T09:51:29.960Z,30.6
2022-07-26T09:53:44.779Z,30.7
2022-07-26T09:55:59.685Z,30.7
2022-07-26T09:58:14.629Z,30.7
2022-07-26T10:00:29.371Z,30.6
2022-07-26T10:02:44.085Z,30.5
2022-07-26T10:04:59.061Z,30.6
2022-07-26T10:07:13.802Z,30.6
2022-07-26T10:09:28.672Z,30.4
2022-07-26T10:11:43.623Z,30.6
2022-07-26T10:13:58.948Z,30.6
2022-07-26T10:16:13.707Z,30.6
2022-07-26T10:18:28.192Z,30.7
2022-07-26T10:20:43.173Z,30.8
2022-07-26T10:22:57.684Z,30.8
2022-07-26T10:25:12.620Z,30.7
2022-07-26T10:27:46.004Z,30.7
2022-07-26T10:30:00.771Z,30.8
2022-07-26T10:32:23.534Z,30.6
2022-07-26T10:34:44.197Z,30.8
2022-07-26T10:36:58.154Z,30.7
2022-07-26T10:39:13.214Z,30.7
2022-07-26T10:41:28.032Z,30.8
2022-07-26T10:44:01.375Z,30.8
2022-07-26T10:46:23.585Z,30.9
2022-07-26T10:48:37.819Z,30.9
2022-07-26T10:50:53.110Z,30.7
2022-07-26T10:53:08.247Z,30.8
2022-07-26T10:55:23.192Z,30.7
2022-07-26T10:57:38.269Z,30.8
2022-07-26T11:00:10.514Z,30.9
2022-07-26T11:02:25.461Z,30.8
2022-07-26T11:04:40.454Z,30.8
2022-07-26T11:06:55.196Z,30.8
2022-07-26T11:09:09.945Z,30.8
2022-07-26T11:11:24.883Z,30.6
2022-07-26T11:13:39.738Z,30.6
2022-07-26T11:15:54.707Z,30.7
2022-07-26T11:18:09.405Z,30.8
2022-07-26T11:20:29.194Z,30.9
2022-07-26T11:22:39.197Z,30.8
2022-07-26T11:24:54.021Z,30.9
2022-07-26T11:27:08.908Z,30.9
2022-07-26T11:29:23.724Z,31
2022-07-26T11:31:59.728Z,30.9
2022-07-26T11:34:08.916Z,30.9
2022-07-26T11:36:23.586Z,30.9
2022-07-26T11:38:38.477Z,31.1
2022-07-26T11:40:53.324Z,30.9
2022-07-26T11:43:08.397Z,30.9
2022-07-26T11:45:23.257Z,30.8
2022-07-26T11:47:38.394Z,31
2022-07-26T11:50:22.843Z,31
2022-07-26T11:52:34.304Z,31.1
2022-07-26T11:54:48.647Z,31.1
2022-07-26T11:57:03.493Z,30.9
2022-07-26T11:59:18.584Z,31.1
2022-07-26T12:01:33.276Z,31
2022-07-26T12:03:48.206Z,31
2022-07-26T12:06:03.036Z,31.1
2022-07-26T12:08:17.849Z,30.9
2022-07-26T12:10:32.728Z,31.1
2022-07-26T12:12:47.575Z,31.1
2022-07-26T12:15:23.048Z,31.1
2022-07-26T12:17:47.882Z,31
2022-07-26T12:19:54.826Z,31.1
2022-07-26T12:22:12.177Z,31.1
2022-07-26T12:24:28.888Z,31.1
2022-07-26T12:26:43.709Z,31.1
2022-07-26T12:29:06.507Z,31.1
2022-07-26T12:31:34.268Z,31.1
2022-07-26T12:33:48.770Z,31
2022-07-26T12:36:03.699Z,31
2022-07-26T12:38:18.474Z,31
2022-07-26T12:40:33.273Z,30.9
2022-07-26T12:42:48.155Z,30.9
2022-07-26T12:45:02.987Z,31
2022-07-26T12:47:17.855Z,31
2022-07-26T12:49:32.839Z,31.1
2022-07-26T12:51:47.497Z,31.1
2022-07-26T12:54:02.407Z,31
2022-07-26T12:56:17.280Z,31
2022-07-26T12:58:32.006Z,31.3
2022-07-26T13:00:46.884Z,31.1
2022-07-26T13:03:01.819Z,31.1
2022-07-26T13:05:17.087Z,31.1
2022-07-26T13:07:31.489Z,31.2
2022-07-26T13:09:46.453Z,31
2022-07-26T13:12:19.829Z,31.1
2022-07-26T13:14:34.728Z,31.2
2022-07-26T13:16:49.666Z,31.2
2022-07-26T13:19:04.527Z,31.1
2022-07-26T13:21:19.940Z,31.1
2022-07-26T13:23:34.316Z,31.3
2022-07-26T13:25:49.029Z,31.2
2022-07-26T13:28:03.937Z,31.1
2022-07-26T13:30:19.318Z,31.1
2022-07-26T13:32:33.600Z,31.2
2022-07-26T13:34:48.401Z,31.2
2022-07-26T13:37:08.170Z,31.1
2022-07-26T13:39:18.029Z,31.3
2022-07-26T13:41:32.871Z,31.3
2022-07-26T13:43:47.926Z,31.2
2022-07-26T13:46:02.944Z,31.1
2022-07-26T13:48:17.470Z,31.2
2022-07-26T13:50:32.332Z,31.3
2022-07-26T13:52:47.189Z,31.3
2022-07-26T13:55:03.334Z,31.2
2022-07-26T13:57:16.882Z,31.1
2022-07-26T13:59:36.401Z,31.2
2022-07-26T14:02:00.883Z,31.2
2022-07-26T14:04:15.925Z,31.3
2022-07-26T14:06:30.401Z,31.2
2022-07-26T14:08:45.366Z,31.1
2022-07-26T14:11:00.109Z,31.3
2022-07-26T14:13:15.089Z,31.3
2022-07-26T14:15:30.011Z,31.2
2022-07-26T14:17:44.844Z,31.1
2022-07-26T14:20:00.097Z,31.3
2022-07-26T14:22:16.026Z,31.3
2022-07-26T14:24:31.056Z,31.3
2022-07-26T14:26:45.851Z,31.2
2022-07-26T14:29:00.720Z,31.1
2022-07-26T14:31:15.947Z,31.3
2022-07-26T14:33:30.407Z,31.2
2022-07-26T14:35:45.226Z,31.3
2022-07-26T14:38:23.410Z,31.3
2022-07-26T14:40:32.467Z,31.3
2022-07-26T14:42:47.361Z,31.2
2022-07-26T14:45:02.232Z,31.1
2022-07-26T14:47:17.080Z,31.2
2022-07-26T14:49:46.865Z,31.1
2022-07-26T14:52:11.547Z,31.3
2022-07-26T14:54:26.337Z,31.1
2022-07-26T14:56:41.268Z,31.2
2022-07-26T14:58:56.201Z,31.1
2022-07-26T15:01:10.938Z,31.2
2022-07-26T15:03:25.697Z,31.3
2022-07-26T15:05:40.489Z,31.3
2022-07-26T15:07:55.414Z,31.1
2022-07-26T15:10:10.178Z,31.3
2022-07-26T15:12:25.271Z,31.1
2022-07-26T15:14:39.979Z,31.3
2022-07-26T15:16:54.944Z,31.1
2022-07-26T15:19:09.688Z,31.3
2022-07-26T15:21:24.549Z,31.3
2022-07-26T15:23:39.428Z,31.2
2022-07-26T15:25:54.224Z,31.2
2022-07-26T15:28:09.154Z,31.1
2022-07-26T15:30:24.009Z,31.3
2022-07-26T15:32:39.566Z,31.3
2022-07-26T15:34:54.321Z,31.2
2022-07-26T15:37:09.170Z,31.3
2022-07-26T15:39:24.135Z,31.3
2022-07-26T15:41:38.841Z,31.3
2022-07-26T15:44:06.739Z,31.3
2022-07-26T15:46:21.661Z,31.2
2022-07-26T15:49:03.068Z,31.2
2022-07-26T15:51:17.955Z,31.1
2022-07-26T15:53:32.735Z,31.1
2022-07-26T15:55:47.645Z,31.3
2022-07-26T15:58:02.487Z,31.3
2022-07-26T16:00:17.267Z,31.2
2022-07-26T16:02:32.199Z,31.1
2022-07-26T16:04:46.974Z,31.1
2022-07-26T16:07:01.830Z,31.2
2022-07-26T16:09:32.415Z,31.2
2022-07-26T16:11:47.278Z,31.3
2022-07-26T16:14:02.258Z,31.3
2022-07-26T16:16:17.008Z,31.2
2022-07-26T16:18:31.691Z,31.2
2022-07-26T16:20:46.831Z,31.3
2022-07-26T16:23:01.413Z,31.1
2022-07-26T16:25:16.348Z,31.3
2022-07-26T16:27:31.024Z,31.3
2022-07-26T16:29:50.315Z,31.1
2022-07-26T16:32:00.922Z,31.3
2022-07-26T16:34:15.650Z,31.4
2022-07-26T16:36:30.541Z,31.2
2022-07-26T16:38:45.504Z,31.4
2022-07-26T16:41:00.220Z,31.1
2022-07-26T16:43:15.065Z,31.2
2022-07-26T16:45:30.042Z,31
2022-07-26T16:47:44.826Z,31.2
2022-07-26T16:49:59.724Z,31.1
2022-07-26T16:52:14.631Z,31.9
2022-07-26T16:54:29.423Z,31.1
2022-07-26T16:56:44.530Z,31.3
2022-07-26T16:58:59.025Z,31.2
2022-07-26T17:01:13.960Z,31.3
2022-07-26T17:03:28.725Z,31.1
2022-07-26T17:05:43.565Z,31.2
2022-07-26T17:08:18.131Z,31.6
2022-07-26T17:10:33.091Z,31
2022-07-26T17:12:47.933Z,31.6
2022-07-26T17:15:02.714Z,31.5
2022-07-26T17:17:17.879Z,31.5
2022-07-26T17:19:32.439Z,30.9
2022-07-26T17:21:47.292Z,31.3
2022-07-26T17:24:05.478Z,31.2
2022-07-26T17:26:17.085Z,31.2
2022-07-26T17:28:31.846Z,31.3
2022-07-26T17:30:46.734Z,31.3
2022-07-26T17:33:01.706Z,31.8
2022-07-26T17:35:16.430Z,31.3
2022-07-26T17:37:31.158Z,31.1
2022-07-26T17:39:54.573Z,31.3
2022-07-26T17:42:09.890Z,31.3
2022-07-26T17:44:24.694Z,31.4
2022-07-26T17:46:39.632Z,30.9
2022-07-26T17:49:02.599Z,31.4
2022-07-26T17:51:34.897Z,30.8
2022-07-26T17:53:53.219Z,31.1
2022-07-26T17:56:05.746Z,31.1
2022-07-26T17:58:20.930Z,31.1
2022-07-26T18:00:35.422Z,31.2
2022-07-26T18:02:50.396Z,31.3
2022-07-26T18:05:05.259Z,31.3
2022-07-26T18:07:20.075Z,31.6
2022-07-26T18:09:34.905Z,30.8
2022-07-26T18:11:49.681Z,31.1
2022-07-26T18:14:04.581Z,31.1
2022-07-26T18:16:19.558Z,31.1
2022-07-26T18:18:34.329Z,31.1
2022-07-26T18:20:49.189Z,31.1
2022-07-26T18:23:09.240Z,31
2022-07-26T18:25:35.089Z,31.5
2022-07-26T18:27:49.960Z,31.5
2022-07-26T18:30:04.822Z,31.4
2022-07-26T18:32:19.661Z,31.1
2022-07-26T18:34:34.465Z,30.8
2022-07-26T18:36:49.338Z,30.8
2022-07-26T18:39:04.224Z,30.9
2022-07-26T18:41:19.129Z,30.7
2022-07-26T18:43:34.435Z,31.1
2022-07-26T18:45:48.929Z,31.3
2022-07-26T18:48:03.761Z,31.1
2022-07-26T18:50:18.508Z,31.3
2022-07-26T18:52:33.687Z,31.3
2022-07-26T18:54:48.648Z,31.3
2022-07-26T18:57:03.310Z,31.4
2022-07-26T18:59:18.170Z,31.3
2022-07-26T19:01:33.096Z,31.1
2022-07-26T19:03:47.974Z,31.3
2022-07-26T19:06:02.657Z,31.6
2022-07-26T19:08:17.511Z,31.3
2022-07-26T19:10:32.434Z,31.1
2022-07-26T19:12:48.371Z,31.3
2022-07-26T19:15:02.119Z,31.5
2022-07-26T19:17:16.971Z,31.6
2022-07-26T19:19:31.853Z,31.4
2022-07-26T19:21:46.770Z,31.6
2022-07-26T19:24:01.554Z,31.4
2022-07-26T19:26:16.533Z,31.7
2022-07-26T19:28:31.210Z,31.6
2022-07-26T19:30:46.322Z,31.7
2022-07-26T19:33:01.069Z,31.6
2022-07-26T19:35:15.867Z,31.7
2022-07-26T19:37:30.563Z,31.1
2022-07-26T19:39:45.406Z,31.2
2022-07-26T19:42:00.271Z,30.9
2022-07-26T19:44:15.126Z,31
2022-07-26T19:46:30.419Z,31.4
2022-07-26T19:48:44.966Z,31.5
2022-07-26T19:50:59.732Z,31.3
2022-07-26T19:53:14.475Z,31.1
2022-07-26T19:55:29.400Z,31.4
2022-07-26T19:57:44.280Z,31.3
2022-07-26T19:59:59.150Z,31
2022-07-26T20:02:14.041Z,30.9
2022-07-26T20:04:29.390Z,30.9
2022-07-26T20:06:43.648Z,31.2
2022-07-26T20:08:58.629Z,31
2022-07-26T20:11:20.626Z,31.1
2022-07-26T20:13:35.452Z,31.3
2022-07-26T20:15:49.757Z,31.3
2022-07-26T20:18:11.430Z,31
2022-07-26T20:20:25.798Z,31.1
2022-07-26T20:22:41.186Z,30.9
2022-07-26T20:24:56.052Z,30.9
2022-07-26T20:27:11.050Z,30.9
2022-07-26T20:29:25.844Z,30.9
2022-07-26T20:31:40.642Z,30.9
2022-07-26T20:33:55.360Z,30.9
2022-07-26T20:36:10.344Z,30.8
2022-07-26T20:38:25.328Z,30.9
2022-07-26T20:40:39.920Z,30.9
2022-07-26T20:42:54.805Z,31.3
2022-07-26T20:45:11.214Z,31.2
2022-07-26T20:47:24.626Z,31.4
2022-07-26T20:49:39.427Z,31.3
2022-07-26T20:51:54.153Z,31.3
2022-07-26T20:54:09.064Z,31.3
2022-07-26T20:56:23.969Z,31.3
2022-07-26T20:58:38.697Z,31.3
2022-07-26T21:00:54.212Z,31.3
2022-07-26T21:03:08.458Z,31.3
2022-07-26T21:05:23.362Z,31.3
2022-07-26T21:07:53.627Z,31.4
2022-07-26T21:10:01.789Z,31.3
2022-07-26T21:12:16.727Z,31.2
2022-07-26T21:14:31.596Z,31.4
2022-07-26T21:16:46.487Z,31.3
2022-07-26T21:19:02.241Z,31.1
2022-07-26T21:21:16.133Z,31.2
2022-07-26T21:23:33.240Z,31.1
2022-07-26T21:25:47.906Z,31.2
2022-07-26T21:28:02.819Z,31.1
2022-07-26T21:30:17.612Z,31.2
2022-07-26T21:32:32.576Z,31.2
2022-07-26T21:34:47.390Z,31.4
2022-07-26T21:37:02.114Z,31
2022-07-26T21:39:17.133Z,31.3
2022-07-26T21:41:31.717Z,31.1
2022-07-26T21:43:46.690Z,31.1
2022-07-26T21:46:01.559Z,31.2
2022-07-26T21:48:16.414Z,31.1
2022-07-26T21:50:31.325Z,31.1
2022-07-26T21:52:45.997Z,31.1
2022-07-26T21:55:00.993Z,31.2
2022-07-26T21:57:15.717Z,31.2
2022-07-26T21:59:30.595Z,31.1
2022-07-26T22:01:45.514Z,30.9
2022-07-26T22:04:00.445Z,31.1
2022-07-26T22:06:15.275Z,31.1
2022-07-26T22:08:30.090Z,31.2
2022-07-26T22:10:45.378Z,31.2
2022-07-26T22:12:59.780Z,31.1
2022-07-26T22:15:14.725Z,31.1
2022-07-26T22:17:29.496Z,31.3
2022-07-26T22:19:44.193Z,31.2
2022-07-26T22:21:59.058Z,31.3
2022-07-26T22:24:13.976Z,31.1
2022-07-26T22:26:28.716Z,31.1
2022-07-26T22:28:43.651Z,31.4
2022-07-26T22:30:58.479Z,31.4
2022-07-26T22:33:13.372Z,31.3
2022-07-26T22:35:32.389Z,31.5
2022-07-26T22:37:43.054Z,31.4
2022-07-26T22:39:57.914Z,31.1
2022-07-26T22:42:30.827Z,30.9
2022-07-26T22:44:45.669Z,31.2
2022-07-26T22:47:00.604Z,31.1
2022-07-26T22:49:15.573Z,31.3
2022-07-26T22:51:30.234Z,31.2
2022-07-26T22:53:45.685Z,31.1
2022-07-26T22:55:59.802Z,31.1
2022-07-26T22:58:14.746Z,31.1
2022-07-26T23:00:29.593Z,31.1
2022-07-26T23:02:44.376Z,31.1
2022-07-26T23:04:59.196Z,30.9
2022-07-26T23:07:19.139Z,30.9
2022-07-26T23:09:48.070Z,31.1
2022-07-26T23:12:02.880Z,30.9
2022-07-26T23:14:17.784Z,30.9
2022-07-26T23:16:32.858Z,30.8
2022-07-26T23:18:47.533Z,31
2022-07-26T23:21:02.335Z,31.2
2022-07-26T23:23:17.247Z,30.9
2022-07-26T23:25:32.093Z,31.1
2022-07-26T23:27:47.017Z,31.2
2022-07-26T23:30:09.043Z,31.1
2022-07-26T23:32:23.948Z,31.1
2022-07-26T23:34:55.106Z,31.1
2022-07-26T23:37:10.101Z,31.1
2022-07-26T23:39:24.928Z,31.2
2022-07-26T23:41:39.701Z,31.1
2022-07-26T23:43:54.722Z,31
2022-07-26T23:46:09.507Z,31.1
2022-07-26T23:48:24.569Z,31
2022-07-26T23:50:39.257Z,31.3
2022-07-26T23:52:53.957Z,31
2022-07-26T23:55:08.894Z,31.1
2022-07-26T23:57:23.702Z,31
2022-07-26T23:59:38.644Z,30.9
